createdAt,value
2022-07-25T00:02:01.392Z,97411.31
2022-07-25T00:04:30.069Z,97406.94
2022-07-25T00:06:57.975Z,97410.75
2022-07-25T00:09:25.752Z,97404.50
2022-07-25T00:11:53.556Z,97402.84
2022-07-25T00:14:21.413Z,97408.81
2022-07-25T00:16:49.171Z,97402.00
2022-07-25T00:19:17.382Z,97410.44
2022-07-25T00:21:45.527Z,97410.44
2022-07-25T00:24:13.330Z,97406.34
2022-07-25T00:26:41.135Z,97406.34
2022-07-25T00:29:09.109Z,97405.75
2022-07-25T00:31:37.066Z,97406.81
2022-07-25T00:34:05.357Z,97400.22
2022-07-25T00:36:33.444Z,97392.28
2022-07-25T00:39:01.256Z,97390.06
2022-07-25T00:41:29.152Z,97394.16
2022-07-25T00:43:57.121Z,97393.84
2022-07-25T00:46:25.003Z,97397.94
2022-07-25T00:48:54.923Z,97396.56
2022-07-25T00:51:32.063Z,97395.50
2022-07-25T00:54:00.498Z,97390.81
2022-07-25T00:56:28.565Z,97397.38
2022-07-25T00:58:56.855Z,97389.47
2022-07-25T01:01:25.029Z,97391.06
2022-07-25T01:03:53.129Z,97385.28
2022-07-25T01:06:22.296Z,97388.00
2022-07-25T01:08:54.203Z,97384.47
2022-07-25T01:11:22.753Z,97376.56
2022-07-25T01:13:50.623Z,97378.47
2022-07-25T01:16:18.627Z,97367.03
2022-07-25T01:18:46.536Z,97369.69
2022-07-25T01:21:14.610Z,97363.94
2022-07-25T01:23:43.043Z,97365.56
2022-07-25T01:26:10.872Z,97363.09
2022-07-25T01:28:38.675Z,97361.16
2022-07-25T01:31:06.717Z,97361.41
2022-07-25T01:33:34.750Z,97361.41
2022-07-25T01:36:02.547Z,97364.09
2022-07-25T01:38:30.323Z,97360.00
2022-07-25T01:40:58.109Z,97369.22
2022-07-25T01:43:25.902Z,97360.22
2022-07-25T01:45:53.778Z,97365.66
2022-07-25T01:48:21.682Z,97366.22
2022-07-25T01:50:49.522Z,97363.22
2022-07-25T01:53:17.714Z,97360.22
2022-07-25T01:55:46.944Z,97361.03
2022-07-25T01:58:14.793Z,97358.31
2022-07-25T02:00:42.675Z,97364.28
2022-07-25T02:03:28.981Z,97353.63
2022-07-25T02:06:08.127Z,97353.88
2022-07-25T02:08:36.086Z,97345.66
2022-07-25T02:11:04.138Z,97342.38
2022-07-25T02:13:31.977Z,97338.84
2022-07-25T02:16:00.027Z,97339.34
2022-07-25T02:18:27.792Z,97337.41
2022-07-25T02:20:55.567Z,97334.94
2022-07-25T02:23:29.248Z,97331.66
2022-07-25T02:25:57.015Z,97327.78
2022-07-25T02:28:24.937Z,97327.22
2022-07-25T02:30:52.882Z,97323.13
2022-07-25T02:33:20.714Z,97316.81
2022-07-25T02:35:48.568Z,97321.13
2022-07-25T02:38:19.826Z,97328.72
2022-07-25T02:40:49.702Z,97324.34
2022-07-25T02:43:19.031Z,97330.88
2022-07-25T02:45:47.182Z,97325.44
2022-07-25T02:48:15.099Z,97325.44
2022-07-25T02:50:42.959Z,97321.06
2022-07-25T02:53:10.924Z,97324.03
2022-07-25T02:55:38.743Z,97317.47
2022-07-25T02:58:06.832Z,97322.09
2022-07-25T03:00:34.887Z,97317.72
2022-07-25T03:03:02.772Z,97319.31
2022-07-25T03:05:32.176Z,97314.13
2022-07-25T03:07:59.976Z,97312.50
2022-07-25T03:10:27.903Z,97308.69
2022-07-25T03:12:55.654Z,97307.94
2022-07-25T03:15:23.473Z,97305.22
2022-07-25T03:17:51.323Z,97303.56
2022-07-25T03:20:19.297Z,97303.84
2022-07-25T03:22:48.182Z,97299.47
2022-07-25T03:25:21.799Z,97307.56
2022-07-25T03:27:50.349Z,97301.00
2022-07-25T03:30:18.359Z,97287.41
2022-07-25T03:32:46.233Z,97289.88
2022-07-25T03:35:14.047Z,97288.22
2022-07-25T03:37:42.354Z,97284.38
2022-07-25T03:40:10.958Z,97291.66
2022-07-25T03:42:38.763Z,97291.31
2022-07-25T03:45:07.430Z,97292.84
2022-07-25T03:47:35.244Z,97284.31
2022-07-25T03:50:03.440Z,97285.31
2022-07-25T03:52:31.263Z,97279.00
2022-07-25T03:54:59.071Z,97280.31
2022-07-25T03:57:26.827Z,97272.44
2022-07-25T03:59:54.647Z,97272.69
2022-07-25T04:02:22.616Z,97274.56
2022-07-25T04:04:50.446Z,97265.59
2022-07-25T04:07:19.249Z,97263.44
2022-07-25T04:09:47.056Z,97265.59
2022-07-25T04:12:14.893Z,97270.22
2022-07-25T04:14:42.776Z,97266.38
2022-07-25T04:17:10.873Z,97261.75
2022-07-25T04:19:38.741Z,97256.06
2022-07-25T04:22:06.621Z,97256.31
2022-07-25T04:24:34.460Z,97260.16
2022-07-25T04:27:02.401Z,97254.47
2022-07-25T04:29:30.214Z,97252.03
2022-07-25T04:31:58.191Z,97251.19
2022-07-25T04:34:26.297Z,97252.81
2022-07-25T04:36:54.046Z,97257.44
2022-07-25T04:39:21.931Z,97261.81
2022-07-25T04:41:49.740Z,97253.16
2022-07-25T04:44:17.536Z,97256.44
2022-07-25T04:46:45.287Z,97258.09
2022-07-25T04:49:13.205Z,97254.03
2022-07-25T04:51:41.047Z,97247.84
2022-07-25T04:54:09.946Z,97247.88
2022-07-25T04:56:38.106Z,97250.91
2022-07-25T04:59:07.180Z,97249.59
2022-07-25T05:01:35.906Z,97248.84
2022-07-25T05:04:04.128Z,97247.00
2022-07-25T05:06:33.211Z,97238.88
2022-07-25T05:09:01.066Z,97238.94
2022-07-25T05:11:28.858Z,97254.22
2022-07-25T05:13:56.706Z,97248.03
2022-07-25T05:16:24.607Z,97244.78
2022-07-25T05:18:52.664Z,97247.31
2022-07-25T05:21:20.522Z,97242.69
2022-07-25T05:23:48.390Z,97243.56
2022-07-25T05:26:16.669Z,97248.00
2022-07-25T05:28:44.506Z,97249.94
2022-07-25T05:31:12.378Z,97243.69
2022-07-25T05:33:40.170Z,97243.53
2022-07-25T05:36:09.141Z,97238.94
2022-07-25T05:38:37.199Z,97239.78
2022-07-25T05:41:05.528Z,97239.81
2022-07-25T05:43:34.764Z,97239.59
2022-07-25T05:46:05.230Z,97239.06
2022-07-25T05:48:33.109Z,97238.53
2022-07-25T05:51:00.962Z,97238.59
2022-07-25T05:53:29.049Z,97231.53
2022-07-25T05:55:57.105Z,97231.78
2022-07-25T05:58:29.610Z,97226.66
2022-07-25T06:00:58.965Z,97222.31
2022-07-25T06:03:27.177Z,97216.03
2022-07-25T06:05:56.836Z,97224.00
2022-07-25T06:08:25.015Z,97224.00
2022-07-25T06:10:52.958Z,97216.94
2022-07-25T06:13:21.132Z,97217.81
2022-07-25T06:15:51.437Z,97215.38
2022-07-25T06:18:19.428Z,97215.41
2022-07-25T06:20:47.342Z,97214.84
2022-07-25T06:23:16.064Z,97216.53
2022-07-25T06:25:50.022Z,97215.72
2022-07-25T06:28:18.521Z,97214.91
2022-07-25T06:30:48.602Z,97212.47
2022-07-25T06:33:17.511Z,97213.56
2022-07-25T06:35:46.062Z,97213.59
2022-07-25T06:38:13.844Z,97211.16
2022-07-25T06:40:41.936Z,97215.78
2022-07-25T06:43:10.219Z,97217.72
2022-07-25T06:45:38.417Z,97219.88
2022-07-25T06:48:06.999Z,97213.91
2022-07-25T06:50:34.847Z,97215.00
2022-07-25T06:53:02.613Z,97219.91
2022-07-25T06:55:31.386Z,97216.66
2022-07-25T06:57:59.465Z,97206.03
2022-07-25T07:00:27.598Z,97201.69
2022-07-25T07:02:59.746Z,97194.84
2022-07-25T07:05:32.066Z,97199.25
2022-07-25T07:08:00.680Z,97207.97
2022-07-25T07:10:29.529Z,97209.34
2022-07-25T07:13:10.455Z,97216.69
2022-07-25T07:15:39.642Z,97220.25
2022-07-25T07:18:07.661Z,97213.13
2022-07-25T07:20:35.690Z,97206.03
2022-07-25T07:23:03.622Z,97212.63
2022-07-25T07:25:31.579Z,97206.59
2022-07-25T07:27:59.370Z,97210.13
2022-07-25T07:30:52.090Z,97204.94
2022-07-25T07:33:15.420Z,97205.22
2022-07-25T07:35:46.457Z,97202.22
2022-07-25T07:38:14.880Z,97198.69
2022-07-25T07:40:42.763Z,97202.22
2022-07-25T07:43:11.034Z,97197.84
2022-07-25T07:45:38.881Z,97190.75
2022-07-25T07:48:07.345Z,97193.44
2022-07-25T07:50:35.584Z,97190.44
2022-07-25T07:53:04.041Z,97200.25
2022-07-25T07:55:48.953Z,97195.59
2022-07-25T07:58:19.104Z,97192.28
2022-07-25T08:00:49.477Z,97186.00
2022-07-25T08:03:21.882Z,97188.16
2022-07-25T08:05:51.852Z,97191.97
2022-07-25T08:08:19.994Z,97190.03
2022-07-25T08:10:49.720Z,97199.03
2022-07-25T08:13:28.934Z,97200.38
2022-07-25T08:16:01.092Z,97195.97
2022-07-25T08:18:30.288Z,97192.38
2022-07-25T08:20:58.754Z,97192.63
2022-07-25T08:23:27.823Z,97195.34
2022-07-25T08:25:55.685Z,97192.00
2022-07-25T08:28:23.473Z,97189.19
2022-07-25T08:30:51.550Z,97190.78
2022-07-25T08:33:19.897Z,97196.25
2022-07-25T08:35:54.740Z,97200.88
2022-07-25T08:38:24.860Z,97201.66
2022-07-25T08:40:54.955Z,97199.97
2022-07-25T08:43:23.206Z,97203.81
2022-07-25T08:45:54.676Z,97201.53
2022-07-25T08:48:26.578Z,97207.50
2022-07-25T08:50:57.305Z,97201.41
2022-07-25T08:53:34.886Z,97199.97
2022-07-25T08:56:14.834Z,97201.56
2022-07-25T08:58:45.327Z,97201.56
2022-07-25T09:01:14.388Z,97208.38
2022-07-25T09:03:43.832Z,97204.78
2022-07-25T09:06:20.935Z,97209.91
2022-07-25T09:09:00.641Z,97193.72
2022-07-25T09:11:36.559Z,97196.69
2022-07-25T09:14:15.067Z,97195.81
2022-07-25T09:16:45.505Z,97196.81
2022-07-25T09:19:22.641Z,97189.94
2022-07-25T09:22:07.049Z,97185.22
2022-07-25T09:24:45.501Z,97181.31
2022-07-25T09:27:13.361Z,97186.72
2022-07-25T09:29:45.426Z,97179.16
2022-07-25T09:32:22.839Z,97182.09
2022-07-25T09:34:51.423Z,97176.16
2022-07-25T09:37:26.445Z,97171.34
2022-07-25T09:39:54.404Z,97170.38
2022-07-25T09:42:32.476Z,97170.91
2022-07-25T09:45:13.184Z,97160.34
2022-07-25T09:47:57.778Z,97172.56
2022-07-25T09:50:28.701Z,97170.88
2022-07-25T09:53:00.749Z,97163.38
2022-07-25T09:55:30.621Z,97162.75
2022-07-25T09:57:58.792Z,97165.44
2022-07-25T10:00:29.297Z,97162.38
2022-07-25T10:03:18.533Z,97158.72
2022-07-25T10:06:14.906Z,97149.81
2022-07-25T10:08:43.487Z,97150.88
2022-07-25T10:11:28.078Z,97147.34
2022-07-25T10:13:56.742Z,97146.97
2022-07-25T10:16:27.144Z,97150.13
2022-07-25T10:18:58.998Z,97141.41
2022-07-25T10:21:28.560Z,97131.94
2022-07-25T10:24:11.522Z,97131.53
2022-07-25T10:26:51.103Z,97136.00
2022-07-25T10:29:18.908Z,97130.88
2022-07-25T10:31:51.187Z,97125.16
2022-07-25T10:34:33.552Z,97130.63
2022-07-25T10:37:16.708Z,97127.16
2022-07-25T10:39:45.822Z,97114.13
2022-07-25T10:42:16.601Z,97115.44
2022-07-25T10:44:49.231Z,97117.16
2022-07-25T10:47:18.035Z,97107.78
2022-07-25T10:50:14.423Z,97111.41
2022-07-25T10:52:42.590Z,97100.16
2022-07-25T10:55:10.581Z,97094.75
2022-07-25T10:57:45.350Z,97095.25
2022-07-25T11:00:22.976Z,97095.09
2022-07-25T11:02:50.814Z,97089.47
2022-07-25T11:05:18.868Z,97086.44
2022-07-25T11:08:20.226Z,97089.13
2022-07-25T11:10:52.727Z,97088.56
2022-07-25T11:13:20.855Z,97082.91
2022-07-25T11:15:48.855Z,97078.59
2022-07-25T11:18:18.515Z,97085.13
2022-07-25T11:20:46.401Z,97074.63
2022-07-25T11:23:22.209Z,97076.47
2022-07-25T11:25:51.494Z,97074.25
2022-07-25T11:28:19.397Z,97064.38
2022-07-25T11:30:47.602Z,97066.66
2022-07-25T11:33:17.686Z,97067.81
2022-07-25T11:35:46.502Z,97063.94
2022-07-25T11:38:15.647Z,97056.50
2022-07-25T11:40:45.007Z,97067.84
2022-07-25T11:43:22.206Z,97068.66
2022-07-25T11:46:06.938Z,97063.97
2022-07-25T11:48:37.684Z,97067.84
2022-07-25T11:51:19.163Z,97085.50
2022-07-25T11:53:51.118Z,97067.63
2022-07-25T11:56:41.858Z,97076.25
2022-07-25T11:59:11.335Z,97068.97
2022-07-25T12:01:43.861Z,97073.50
2022-07-25T12:04:17.760Z,97069.28
2022-07-25T12:06:48.823Z,97069.28
2022-07-25T12:09:21.191Z,97068.16
2022-07-25T12:11:50.703Z,97074.00
2022-07-25T12:14:18.759Z,97056.66
2022-07-25T12:16:46.670Z,97072.88
2022-07-25T12:19:23.118Z,97066.53
2022-07-25T12:21:50.922Z,97063.63
2022-07-25T12:24:18.690Z,97059.41
2022-07-25T12:26:46.589Z,97056.81
2022-07-25T12:29:14.369Z,97061.03
2022-07-25T12:31:42.177Z,97055.50
2022-07-25T12:34:09.949Z,97055.66
2022-07-25T12:36:44.064Z,97050.78
2022-07-25T12:39:12.274Z,97053.22
2022-07-25T12:41:42.582Z,97053.41
2022-07-25T12:44:10.689Z,97052.59
2022-07-25T12:46:40.346Z,97054.44
2022-07-25T12:49:08.633Z,97041.13
2022-07-25T12:51:36.726Z,97049.41
2022-07-25T12:54:04.990Z,97043.41
2022-07-25T12:56:33.051Z,97036.09
2022-07-25T12:59:02.515Z,97043.28
2022-07-25T13:01:30.338Z,97047.31
2022-07-25T13:03:58.085Z,97042.75
2022-07-25T13:06:25.937Z,97034.66
2022-07-25T13:08:53.673Z,97036.94
2022-07-25T13:11:21.471Z,97024.88
2022-07-25T13:13:49.315Z,97029.88
2022-07-25T13:16:17.323Z,97022.75
2022-07-25T13:18:45.326Z,97028.69
2022-07-25T13:21:15.280Z,97029.22
2022-07-25T13:23:43.849Z,97030.19
2022-07-25T13:26:11.675Z,97036.84
2022-07-25T13:28:39.566Z,97025.97
2022-07-25T13:31:08.005Z,97034.25
2022-07-25T13:33:35.765Z,97030.47
2022-07-25T13:36:03.966Z,97033.59
2022-07-25T13:38:31.766Z,97030.69
2022-07-25T13:40:59.603Z,97042.56
2022-07-25T13:43:27.462Z,97038.25
2022-07-25T13:45:55.423Z,97036.44
2022-07-25T13:48:30.834Z,97037.91
2022-07-25T13:50:59.688Z,97044.22
2022-07-25T13:53:30.329Z,97042.91
2022-07-25T13:56:00.910Z,97055.41
2022-07-25T13:58:29.320Z,97053.97
2022-07-25T14:00:57.162Z,97060.44
2022-07-25T14:03:24.995Z,97090.03
2022-07-25T14:05:52.886Z,97074.91
2022-07-25T14:08:20.783Z,97065.91
2022-07-25T14:10:48.592Z,97062.81
2022-07-25T14:13:16.378Z,97057.63
2022-07-25T14:16:35.002Z,97060.28
2022-07-25T14:19:02.959Z,97061.94
2022-07-25T14:21:31.321Z,97053.84
2022-07-25T14:23:59.363Z,97047.03
2022-07-25T14:26:28.361Z,97053.56
2022-07-25T14:28:56.550Z,97034.44
2022-07-25T14:31:24.487Z,97038.06
2022-07-25T14:33:52.566Z,97030.72
2022-07-25T14:36:20.428Z,97018.97
2022-07-25T14:38:48.468Z,97033.94
2022-07-25T14:41:16.473Z,97037.28
2022-07-25T14:43:44.318Z,97038.84
2022-07-25T14:46:12.278Z,97038.34
2022-07-25T14:48:40.147Z,97042.56
2022-07-25T14:51:08.357Z,97039.97
2022-07-25T14:53:37.044Z,97033.31
2022-07-25T14:56:07.654Z,97042.41
2022-07-25T14:58:36.143Z,97042.47
2022-07-25T15:01:04.287Z,97056.19
2022-07-25T15:03:32.172Z,97044.44
2022-07-25T15:06:00.336Z,97065.31
2022-07-25T15:08:29.395Z,97072.09
2022-07-25T15:10:57.365Z,97093.00
2022-07-25T15:13:32.859Z,97096.06
2022-07-25T15:16:03.078Z,97083.75
2022-07-25T15:18:31.826Z,97080.63
2022-07-25T15:20:59.833Z,97086.72
2022-07-25T15:23:30.358Z,97070.91
2022-07-25T15:26:02.333Z,97071.09
2022-07-25T15:28:34.029Z,97077.81
2022-07-25T15:31:02.205Z,97062.16
2022-07-25T15:33:30.322Z,97061.03
2022-07-25T15:35:58.872Z,97070.91
2022-07-25T15:38:27.264Z,97050.69
2022-07-25T15:40:55.090Z,97060.59
2022-07-25T15:43:23.329Z,97058.03
2022-07-25T15:45:51.805Z,97060.22
2022-07-25T15:48:19.747Z,97046.75
2022-07-25T15:50:51.678Z,97049.00
2022-07-25T15:53:20.216Z,97051.34
2022-07-25T15:55:48.099Z,97063.75
2022-07-25T15:58:16.015Z,97070.16
2022-07-25T16:00:44.391Z,97056.56
2022-07-25T16:03:13.821Z,97059.84
2022-07-25T16:05:43.229Z,97045.81
2022-07-25T16:08:11.211Z,97042.53
2022-07-25T16:10:39.085Z,97044.19
2022-07-25T16:13:07.517Z,97035.66
2022-07-25T16:15:35.309Z,97040.66
2022-07-25T16:18:03.418Z,97041.38
2022-07-25T16:20:33.368Z,97038.06
2022-07-25T16:23:02.178Z,97037.25
2022-07-25T16:25:30.650Z,97031.75
2022-07-25T16:27:59.918Z,97031.91
2022-07-25T16:30:28.652Z,97037.66
2022-07-25T16:32:56.449Z,97036.31
2022-07-25T16:35:24.785Z,97032.78
2022-07-25T16:37:52.894Z,97041.41
2022-07-25T16:40:20.770Z,97036.28
2022-07-25T16:42:50.273Z,97042.47
2022-07-25T16:45:18.061Z,97033.94
2022-07-25T16:47:45.868Z,97045.75
2022-07-25T16:50:13.945Z,97041.03
2022-07-25T16:52:41.697Z,97042.97
2022-07-25T16:55:10.041Z,97036.59
2022-07-25T16:57:38.940Z,97039.38
2022-07-25T17:00:09.531Z,97051.09
2022-07-25T17:02:37.726Z,97033.66
2022-07-25T17:05:06.200Z,97047.91
2022-07-25T17:07:34.907Z,97046.78
2022-07-25T17:10:04.534Z,97048.56
2022-07-25T17:12:32.495Z,97063.91
2022-07-25T17:15:00.335Z,97048.28
2022-07-25T17:17:28.379Z,97061.09
2022-07-25T17:19:59.892Z,97060.94
2022-07-25T17:22:28.017Z,97060.59
2022-07-25T17:24:55.862Z,97063.84
2022-07-25T17:27:25.922Z,97066.00
2022-07-25T17:29:53.705Z,97068.38
2022-07-25T17:32:24.953Z,97065.78
2022-07-25T17:34:55.530Z,97074.75
2022-07-25T17:37:24.464Z,97078.44
2022-07-25T17:39:52.325Z,97075.19
2022-07-25T17:42:22.401Z,97075.47
2022-07-25T17:44:52.617Z,97078.03
2022-07-25T17:47:20.607Z,97076.38
2022-07-25T17:49:51.487Z,97089.00
2022-07-25T17:52:19.346Z,97089.72
2022-07-25T17:54:47.145Z,97108.81
2022-07-25T17:57:14.992Z,97104.19
2022-07-25T17:59:42.810Z,97112.84
2022-07-25T18:02:10.664Z,97107.94
2022-07-25T18:04:38.507Z,97114.53
2022-07-25T18:07:06.481Z,97116.22
2022-07-25T18:09:34.308Z,97113.41
2022-07-25T18:12:02.735Z,97130.53
2022-07-25T18:14:31.410Z,97135.16
2022-07-25T18:16:59.475Z,97133.91
2022-07-25T18:19:27.278Z,97144.81
2022-07-25T18:21:55.052Z,97140.63
2022-07-25T18:24:28.825Z,97147.66
2022-07-25T18:26:59.505Z,97149.41
2022-07-25T18:29:27.508Z,97158.84
2022-07-25T18:31:55.461Z,97163.09
2022-07-25T18:34:23.246Z,97165.28
2022-07-25T18:36:51.119Z,97172.94
2022-07-25T18:39:19.030Z,97168.81
2022-07-25T18:41:46.867Z,97176.25
2022-07-25T18:44:14.759Z,97186.44
2022-07-25T18:46:45.750Z,97181.28
2022-07-25T18:49:14.005Z,97188.13
2022-07-25T18:51:41.948Z,97190.59
2022-07-25T18:54:10.080Z,97191.47
2022-07-25T18:56:38.338Z,97202.25
2022-07-25T18:59:06.399Z,97200.41
2022-07-25T19:01:35.838Z,97197.69
2022-07-25T19:04:04.120Z,97198.50
2022-07-25T19:06:32.432Z,97200.41
2022-07-25T19:09:00.255Z,97210.28
2022-07-25T19:11:28.076Z,97203.50
2022-07-25T19:13:55.840Z,97212.84
2022-07-25T19:16:25.566Z,97221.06
2022-07-25T19:18:53.666Z,97220.03
2022-07-25T19:21:21.472Z,97230.66
2022-07-25T19:23:51.268Z,97236.97
2022-07-25T19:26:21.070Z,97243.03
2022-07-25T19:28:50.296Z,97248.50
2022-07-25T19:31:18.276Z,97255.63
2022-07-25T19:33:46.263Z,97269.28
2022-07-25T19:36:14.580Z,97270.41
2022-07-25T19:38:42.683Z,97276.09
2022-07-25T19:41:10.580Z,97280.19
2022-07-25T19:43:38.447Z,97281.84
2022-07-25T19:46:06.902Z,97283.50
2022-07-25T19:48:34.974Z,97291.97
2022-07-25T19:51:03.222Z,97292.00
2022-07-25T19:53:32.200Z,97291.44
2022-07-25T19:56:00.294Z,97289.81
2022-07-25T19:58:28.191Z,97297.19
2022-07-25T20:00:56.144Z,97304.56
2022-07-25T20:03:24.002Z,97308.66
2022-07-25T20:05:52.177Z,97307.03
2022-07-25T20:08:20.047Z,97311.69
2022-07-25T20:10:48.478Z,97311.13
2022-07-25T20:13:16.414Z,97305.69
2022-07-25T20:15:44.698Z,97299.41
2022-07-25T20:18:18.797Z,97302.69
2022-07-25T20:20:47.735Z,97316.63
2022-07-25T20:23:15.623Z,97308.69
2022-07-25T20:25:43.516Z,97319.03
2022-07-25T20:28:11.460Z,97332.66
2022-07-25T20:30:39.664Z,97327.22
2022-07-25T20:33:09.550Z,97335.66
2022-07-25T20:35:38.661Z,97328.84
2022-07-25T20:38:08.982Z,97330.47
2022-07-25T20:40:49.281Z,97337.84
2022-07-25T20:43:18.791Z,97329.66
2022-07-25T20:45:47.454Z,97339.22
2022-07-25T20:48:15.952Z,97338.41
2022-07-25T20:50:44.583Z,97340.28
2022-07-25T20:53:13.127Z,97341.38
2022-07-25T20:55:41.029Z,97336.75
2022-07-25T20:58:08.868Z,97340.53
2022-07-25T21:00:36.734Z,97336.97
2022-07-25T21:03:05.190Z,97340.78
2022-07-25T21:05:40.462Z,97348.38
2022-07-25T21:08:08.370Z,97354.28
2022-07-25T21:10:36.495Z,97352.94
2022-07-25T21:13:04.317Z,97354.00
2022-07-25T21:15:32.439Z,97356.13
2022-07-25T21:18:00.816Z,97353.41
2022-07-25T21:20:28.954Z,97365.13
2022-07-25T21:22:56.847Z,97360.72
2022-07-25T21:25:24.797Z,97361.00
2022-07-25T21:27:52.715Z,97361.25
2022-07-25T21:30:20.555Z,97359.88
2022-07-25T21:32:48.364Z,97364.22
2022-07-25T21:35:16.233Z,97368.47
2022-07-25T21:37:44.274Z,97371.63
2022-07-25T21:40:12.232Z,97368.88
2022-07-25T21:42:39.989Z,97372.06
2022-07-25T21:45:08.509Z,97377.81
2022-07-25T21:47:36.395Z,97379.13
2022-07-25T21:50:25.112Z,97385.34
2022-07-25T21:52:53.978Z,97391.84
2022-07-25T21:55:22.526Z,97400.84
2022-07-25T21:57:51.481Z,97401.72
2022-07-25T22:00:20.360Z,97412.31
2022-07-25T22:02:48.368Z,97421.28
2022-07-25T22:05:18.888Z,97408.78
2022-07-25T22:07:47.346Z,97402.53
2022-07-25T22:10:18.256Z,97392.94
2022-07-25T22:12:46.632Z,97401.00
2022-07-25T22:15:14.849Z,97398.63
2022-07-25T22:17:48.481Z,97389.09
2022-07-25T22:20:19.643Z,97397.47
2022-07-25T22:22:48.715Z,97397.97
2022-07-25T22:25:17.520Z,97406.78
2022-07-25T22:27:45.384Z,97398.09
2022-07-25T22:30:18.806Z,97396.44
2022-07-25T22:32:50.546Z,97399.16
2022-07-25T22:35:18.743Z,97398.59
2022-07-25T22:37:46.840Z,97401.31
2022-07-25T22:40:14.862Z,97405.69
2022-07-25T22:42:42.846Z,97407.94
2022-07-25T22:45:11.141Z,97405.22
2022-07-25T22:47:39.211Z,97408.22
2022-07-25T22:50:08.843Z,97418.03
2022-07-25T22:52:36.699Z,97427.81
2022-07-25T22:55:05.024Z,97425.09
2022-07-25T22:57:36.766Z,97430.53
2022-07-25T23:00:11.952Z,97444.97
2022-07-25T23:02:40.467Z,97449.59
2022-07-25T23:05:09.378Z,97463.19
2022-07-25T23:07:37.653Z,97456.63
2022-07-25T23:10:07.057Z,97453.28
2022-07-25T23:12:35.279Z,97450.50
2022-07-25T23:15:03.829Z,97451.75
2022-07-25T23:17:31.674Z,97442.47
2022-07-25T23:19:59.575Z,97432.53
2022-07-25T23:22:28.987Z,97435.19
2022-07-25T23:24:58.515Z,97440.25
2022-07-25T23:27:26.653Z,97439.31
2022-07-25T23:29:54.486Z,97446.94
2022-07-25T23:32:22.322Z,97454.47
2022-07-25T23:34:50.238Z,97446.97
2022-07-25T23:37:18.095Z,97458.09
2022-07-25T23:39:45.884Z,97465.72
2022-07-25T23:42:13.730Z,97465.09
2022-07-25T23:44:42.217Z,97465.97
2022-07-25T23:47:12.480Z,97463.53
2022-07-25T23:49:41.040Z,97457.91
2022-07-25T23:52:08.926Z,97469.69
2022-07-25T23:54:38.311Z,97480.38
2022-07-25T23:57:07.241Z,97483.94
2022-07-25T23:59:36.205Z,97489.13
